createdAt,value
2019-05-22T00:01:03.735Z,4.20
2019-05-22T00:03:40.892Z,4.33
2019-05-22T00:06:10.140Z,4.67
2019-05-22T00:08:39.854Z,4.47
2019-05-22T00:11:08.107Z,4.47
2019-05-22T00:13:39.553Z,4.43
2019-05-22T00:16:09.126Z,4.43
2019-05-22T00:18:39.195Z,4.20
2019-05-22T00:21:09.209Z,4.00
2019-05-22T00:23:39.976Z,4.07
2019-05-22T00:26:10.450Z,3.70
2019-05-22T00:28:38.888Z,3.83
2019-05-22T00:31:07.676Z,4.40
2019-05-22T00:33:36.587Z,4.60
2019-05-22T00:36:05.849Z,4.03
2019-05-22T00:38:36.577Z,4.53
2019-05-22T00:41:09.564Z,4.23
2019-05-22T00:43:41.451Z,4.40
2019-05-22T00:46:15.213Z,4.63
2019-05-22T00:48:47.351Z,4.10
2019-05-22T00:51:34.153Z,3.63
2019-05-22T00:54:37.386Z,4.27
2019-05-22T00:57:26.355Z,3.93
2019-05-22T00:59:58.644Z,4.53
2019-05-22T01:02:27.675Z,4.27
2019-05-22T01:04:57.778Z,4.20
2019-05-22T01:07:36.552Z,4.20
2019-05-22T01:10:09.733Z,4.27
2019-05-22T01:12:43.475Z,4.70
2019-05-22T01:15:17.440Z,4.37
2019-05-22T01:17:47.782Z,4.60
2019-05-22T01:20:16.240Z,4.40
2019-05-22T01:22:47.832Z,4.57
2019-05-22T01:25:20.437Z,4.47
2019-05-22T01:27:48.594Z,4.13
2019-05-22T01:30:28.020Z,3.90
2019-05-22T01:32:58.936Z,3.63
2019-05-22T01:35:34.774Z,3.67
2019-05-22T01:38:03.587Z,3.90
2019-05-22T01:40:41.944Z,4.23
2019-05-22T01:43:16.062Z,4.53
2019-05-22T01:45:52.131Z,3.87
2019-05-22T01:48:30.219Z,4.10
2019-05-22T01:51:00.378Z,3.77
2019-05-22T01:53:35.491Z,3.53
2019-05-22T01:56:05.786Z,4.10
2019-05-22T01:58:36.001Z,3.97
2019-05-22T02:01:09.186Z,4.17
2019-05-22T02:03:38.590Z,3.57
2019-05-22T02:06:09.440Z,4.20
2019-05-22T02:08:44.266Z,3.70
2019-05-22T02:11:18.231Z,4.53
2019-05-22T02:13:56.729Z,3.40
2019-05-22T02:16:27.030Z,3.90
2019-05-22T02:18:55.898Z,3.70
2019-05-22T02:21:26.214Z,3.77
2019-05-22T02:23:55.645Z,3.80
2019-05-22T02:26:23.902Z,4.00
2019-05-22T02:28:53.693Z,3.40
2019-05-22T02:31:25.855Z,3.27
2019-05-22T02:34:03.037Z,3.70
2019-05-22T02:36:34.165Z,3.60
2019-05-22T02:39:04.469Z,3.40
2019-05-22T02:41:42.809Z,3.40
2019-05-22T02:44:10.915Z,3.93
2019-05-22T02:46:39.809Z,4.17
2019-05-22T02:49:09.949Z,4.07
2019-05-22T02:51:39.593Z,3.83
2019-05-22T02:54:09.647Z,4.13
2019-05-22T02:56:39.089Z,3.90
2019-05-22T02:59:08.253Z,3.83
2019-05-22T03:01:38.186Z,4.37
2019-05-22T03:04:08.618Z,3.77
2019-05-22T03:06:40.784Z,4.10
2019-05-22T03:09:25.406Z,3.40
2019-05-22T03:12:02.775Z,3.23
2019-05-22T03:14:34.396Z,3.47
2019-05-22T03:17:07.224Z,3.60
2019-05-22T03:19:44.558Z,3.70
2019-05-22T03:22:23.644Z,3.33
2019-05-22T03:24:54.190Z,3.37
2019-05-22T03:27:39.540Z,3.60
2019-05-22T03:30:31.928Z,3.33
2019-05-22T03:33:03.437Z,3.50
2019-05-22T03:35:43.410Z,3.33
2019-05-22T03:38:11.848Z,3.57
2019-05-22T03:40:40.898Z,3.50
2019-05-22T03:43:18.285Z,3.83
2019-05-22T03:45:48.552Z,3.37
2019-05-22T03:48:19.587Z,3.63
2019-05-22T03:50:48.868Z,3.90
2019-05-22T03:53:18.359Z,3.47
2019-05-22T03:55:47.893Z,4.00
2019-05-22T03:58:17.437Z,4.43
2019-05-22T04:00:46.770Z,4.17
2019-05-22T04:03:16.379Z,4.40
2019-05-22T04:05:45.945Z,4.57
2019-05-22T04:08:14.842Z,4.67
2019-05-22T04:10:56.359Z,4.57
2019-05-22T04:13:25.698Z,4.63
2019-05-22T04:15:54.487Z,4.60
2019-05-22T04:18:25.578Z,3.80
2019-05-22T04:20:56.474Z,3.70
2019-05-22T04:23:24.869Z,4.73
2019-05-22T04:25:56.182Z,4.40
2019-05-22T04:28:25.243Z,3.93
2019-05-22T04:30:59.665Z,3.93
2019-05-22T04:33:29.672Z,3.83
2019-05-22T04:36:01.155Z,3.40
2019-05-22T04:38:30.008Z,3.37
2019-05-22T04:41:00.802Z,3.13
2019-05-22T04:43:33.360Z,3.90
2019-05-22T04:46:05.938Z,3.50
2019-05-22T04:48:37.342Z,4.80
2019-05-22T04:51:28.311Z,3.67
2019-05-22T04:54:17.736Z,3.43
2019-05-22T04:56:46.657Z,3.77
2019-05-22T04:59:15.027Z,3.50
2019-05-22T05:01:43.145Z,3.83
2019-05-22T05:04:11.798Z,3.60
2019-05-22T05:06:41.144Z,3.70
2019-05-22T05:09:11.764Z,4.13
2019-05-22T05:11:40.018Z,4.00
2019-05-22T05:14:08.138Z,4.47
2019-05-22T05:16:36.947Z,4.17
2019-05-22T05:19:05.754Z,4.87
2019-05-22T05:21:33.873Z,4.33
2019-05-22T05:24:02.219Z,4.37
2019-05-22T05:26:30.946Z,4.03
2019-05-22T05:29:00.291Z,4.30
2019-05-22T05:31:28.488Z,3.87
2019-05-22T05:34:29.929Z,4.07
2019-05-22T05:37:01.908Z,3.67
2019-05-22T05:40:25.921Z,3.70
2019-05-22T05:42:54.180Z,3.77
2019-05-22T05:45:22.623Z,4.07
2019-05-22T05:47:50.853Z,4.40
2019-05-22T05:50:21.489Z,3.53
2019-05-22T05:52:51.601Z,3.80
2019-05-22T05:55:23.105Z,4.20
2019-05-22T05:58:27.012Z,3.77
2019-05-22T06:01:06.476Z,4.00
2019-05-22T06:03:40.721Z,4.03
2019-05-22T06:07:11.917Z,3.90
2019-05-22T06:09:40.515Z,3.63
2019-05-22T06:12:11.320Z,4.37
2019-05-22T06:14:41.608Z,4.50
2019-05-22T06:18:29.102Z,4.67
2019-05-22T06:21:04.000Z,4.23
2019-05-22T06:24:20.541Z,5.03
2019-05-22T06:27:10.469Z,4.37
2019-05-22T06:29:57.061Z,4.67
2019-05-22T06:33:33.431Z,5.10
2019-05-22T06:36:06.832Z,3.90
2019-05-22T06:39:14.716Z,3.63
2019-05-22T06:41:43.455Z,3.13
2019-05-22T06:44:39.173Z,2.97
2019-05-22T06:47:12.840Z,3.53
2019-05-22T06:49:52.751Z,5.20
2019-05-22T06:52:21.336Z,4.80
2019-05-22T06:54:50.323Z,4.10
2019-05-22T06:57:29.023Z,3.70
2019-05-22T07:00:13.015Z,3.37
2019-05-22T07:02:36.030Z,3.87
2019-05-22T07:05:07.330Z,3.60
2019-05-22T07:07:35.969Z,3.33
2019-05-22T07:10:06.965Z,3.40
2019-05-22T07:12:35.344Z,3.90
2019-05-22T07:15:37.375Z,3.33
2019-05-22T07:18:06.607Z,3.33
2019-05-22T07:20:37.379Z,3.83
2019-05-22T07:23:08.780Z,3.53
2019-05-22T07:25:39.372Z,3.90
2019-05-22T07:28:08.953Z,5.40
2019-05-22T07:30:37.664Z,4.53
2019-05-22T07:33:06.722Z,4.53
2019-05-22T07:35:50.296Z,3.90
2019-05-22T07:38:07.621Z,3.67
2019-05-22T07:40:36.722Z,3.20
2019-05-22T07:43:05.398Z,3.13
2019-05-22T07:45:34.734Z,3.17
2019-05-22T07:48:05.032Z,3.70
2019-05-22T07:50:35.810Z,3.10
2019-05-22T07:53:05.447Z,3.53
2019-05-22T07:55:34.668Z,3.40
2019-05-22T07:58:12.802Z,3.77
2019-05-22T08:00:46.903Z,3.47
2019-05-22T08:03:15.688Z,3.33
2019-05-22T08:05:53.091Z,3.47
2019-05-22T08:08:22.300Z,3.27
2019-05-22T08:10:52.516Z,3.47
2019-05-22T08:13:21.362Z,3.10
2019-05-22T08:15:50.934Z,3.47
2019-05-22T08:18:20.292Z,3.30
2019-05-22T08:20:49.598Z,3.10
2019-05-22T08:23:20.072Z,3.00
2019-05-22T08:25:48.368Z,3.27
2019-05-22T08:28:19.507Z,3.07
2019-05-22T08:30:49.549Z,3.10
2019-05-22T08:33:20.181Z,3.27
2019-05-22T08:35:49.937Z,2.80
2019-05-22T08:38:27.566Z,2.83
2019-05-22T08:40:58.078Z,3.07
2019-05-22T08:43:28.444Z,3.00
2019-05-22T08:45:56.602Z,3.30
2019-05-22T08:48:27.508Z,3.20
2019-05-22T08:50:58.035Z,2.70
2019-05-22T08:53:27.369Z,3.10
2019-05-22T08:55:57.359Z,2.70
2019-05-22T08:58:27.300Z,2.80
2019-05-22T09:00:55.913Z,2.57
2019-05-22T09:03:24.220Z,2.57
2019-05-22T09:05:53.152Z,2.27
2019-05-22T09:08:21.725Z,2.47
2019-05-22T09:10:50.006Z,2.20
2019-05-22T09:13:18.207Z,2.30
2019-05-22T09:15:46.833Z,2.07
2019-05-22T09:18:15.210Z,2.33
2019-05-22T09:20:49.248Z,2.27
2019-05-22T09:23:14.961Z,2.00
2019-05-22T09:25:43.117Z,1.90
2019-05-22T09:28:11.616Z,2.00
2019-05-22T09:30:39.768Z,2.00
2019-05-22T09:33:09.980Z,2.30
2019-05-22T09:35:38.350Z,1.90
2019-05-22T09:38:06.919Z,1.83
2019-05-22T09:40:35.142Z,1.93
2019-05-22T09:43:04.618Z,2.10
2019-05-22T09:45:34.159Z,1.70
2019-05-22T09:48:04.984Z,1.47
2019-05-22T09:50:33.599Z,1.60
2019-05-22T09:53:02.889Z,1.50
2019-05-22T09:55:31.566Z,1.70
2019-05-22T09:58:00.024Z,1.40
2019-05-22T10:00:29.251Z,1.60
2019-05-22T10:02:58.011Z,1.90
2019-05-22T10:05:26.441Z,1.70
2019-05-22T10:08:00.987Z,2.27
2019-05-22T10:10:26.867Z,1.80
2019-05-22T10:12:55.076Z,2.00
2019-05-22T10:15:25.353Z,1.70
2019-05-22T10:17:55.007Z,2.00
2019-05-22T10:20:23.668Z,2.10
2019-05-22T10:22:52.279Z,2.03
2019-05-22T10:25:20.354Z,1.53
2019-05-22T10:27:48.992Z,1.67
2019-05-22T10:30:21.975Z,1.63
2019-05-22T10:32:50.506Z,1.70
2019-05-22T10:35:22.784Z,1.80
2019-05-22T10:37:51.218Z,1.60
2019-05-22T10:40:22.320Z,1.73
2019-05-22T10:42:51.773Z,1.70
2019-05-22T10:45:21.634Z,1.50
2019-05-22T10:47:50.624Z,1.70
2019-05-22T10:50:19.491Z,1.80
2019-05-22T10:52:53.970Z,1.70
2019-05-22T10:55:19.987Z,1.70
2019-05-22T10:57:48.859Z,1.50
2019-05-22T11:00:19.264Z,1.80
2019-05-22T11:02:48.450Z,1.80
2019-05-22T11:05:19.723Z,1.70
2019-05-22T11:07:50.251Z,1.30
2019-05-22T11:10:21.787Z,1.60
2019-05-22T11:12:50.351Z,1.60
2019-05-22T11:15:19.685Z,1.53
2019-05-22T11:17:48.601Z,1.93
2019-05-22T11:20:17.330Z,1.93
2019-05-22T11:22:48.541Z,1.50
2019-05-22T11:25:16.978Z,1.60
2019-05-22T11:27:44.974Z,1.80
2019-05-22T11:30:15.370Z,1.70
2019-05-22T11:32:44.042Z,1.90
2019-05-22T11:35:13.413Z,2.07
2019-05-22T11:37:41.600Z,1.73
2019-05-22T11:40:11.108Z,1.80
2019-05-22T11:42:39.542Z,1.80
2019-05-22T11:45:11.513Z,1.73
2019-05-22T11:47:40.785Z,1.80
2019-05-22T11:50:10.403Z,1.97
2019-05-22T11:52:38.805Z,1.63
2019-05-22T11:55:07.745Z,2.03
2019-05-22T11:57:39.304Z,1.77
2019-05-22T12:00:09.523Z,2.00
2019-05-22T12:02:38.064Z,1.90
2019-05-22T12:05:08.373Z,1.70
2019-05-22T12:07:40.398Z,1.83
2019-05-22T12:10:09.687Z,1.80
2019-05-22T12:12:39.953Z,1.80
2019-05-22T12:15:11.176Z,2.00
2019-05-22T12:17:39.765Z,1.83
2019-05-22T12:20:09.227Z,1.50
2019-05-22T12:22:37.929Z,1.80
2019-05-22T12:25:07.938Z,1.60
2019-05-22T12:27:36.005Z,1.60
2019-05-22T12:30:05.287Z,2.10
2019-05-22T12:32:33.628Z,2.00
2019-05-22T12:35:02.302Z,2.20
2019-05-22T12:37:33.739Z,1.80
2019-05-22T12:40:03.110Z,2.33
2019-05-22T12:42:32.895Z,2.10
2019-05-22T12:45:01.145Z,2.37
2019-05-22T12:47:29.713Z,1.70
2019-05-22T12:49:58.147Z,1.90
2019-05-22T12:52:30.475Z,1.83
2019-05-22T12:54:59.715Z,1.63
2019-05-22T12:57:28.506Z,1.70
2019-05-22T13:00:01.845Z,1.70
2019-05-22T13:02:30.028Z,1.57
2019-05-22T13:04:59.471Z,1.50
2019-05-22T13:07:27.625Z,1.87
2019-05-22T13:09:55.964Z,1.90
2019-05-22T13:12:25.015Z,2.10
2019-05-22T13:15:08.193Z,2.10
2019-05-22T13:17:25.228Z,1.83
2019-05-22T13:19:55.305Z,2.03
2019-05-22T13:22:27.112Z,1.90
2019-05-22T13:24:56.569Z,1.70
2019-05-22T13:27:25.310Z,2.30
2019-05-22T13:29:55.982Z,2.10
2019-05-22T13:32:31.029Z,2.20
2019-05-22T13:35:00.663Z,1.90
2019-05-22T13:37:29.524Z,1.63
2019-05-22T13:39:57.771Z,1.80
2019-05-22T13:42:27.874Z,1.90
2019-05-22T13:44:57.738Z,2.10
2019-05-22T13:47:26.207Z,1.80
2019-05-22T13:49:55.069Z,1.80
2019-05-22T13:52:23.351Z,2.03
2019-05-22T13:54:53.044Z,1.80
2019-05-22T13:57:22.693Z,2.10
2019-05-22T13:59:51.261Z,1.80
2019-05-22T14:02:19.375Z,1.90
2019-05-22T14:04:47.441Z,1.80
2019-05-22T14:07:16.663Z,2.20
2019-05-22T14:09:45.457Z,2.20
2019-05-22T14:12:15.569Z,2.03
2019-05-22T14:14:44.085Z,1.90
2019-05-22T14:17:12.289Z,1.90
2019-05-22T14:19:40.856Z,1.60
2019-05-22T14:22:09.098Z,1.70
2019-05-22T14:24:37.232Z,1.70
2019-05-22T14:27:05.920Z,1.70
2019-05-22T14:29:34.481Z,1.93
2019-05-22T14:32:03.572Z,1.80
2019-05-22T14:34:32.430Z,1.50
2019-05-22T14:37:00.799Z,1.80
2019-05-22T14:39:29.694Z,1.50
2019-05-22T14:41:58.175Z,1.60
2019-05-22T14:44:27.656Z,1.60
2019-05-22T14:46:55.708Z,1.60
2019-05-22T14:49:24.537Z,1.50
2019-05-22T14:51:54.162Z,1.73
2019-05-22T14:54:22.961Z,1.47
2019-05-22T14:56:51.206Z,1.80
2019-05-22T14:59:19.671Z,1.70
2019-05-22T15:01:47.752Z,1.80
2019-05-22T15:04:15.925Z,1.70
2019-05-22T15:06:44.750Z,1.70
2019-05-22T15:09:12.968Z,1.67
2019-05-22T15:11:41.374Z,1.50
2019-05-22T15:14:09.355Z,1.70
2019-05-22T15:16:38.019Z,1.60
2019-05-22T15:19:07.888Z,1.60
2019-05-22T15:21:36.447Z,1.80
2019-05-22T15:24:07.042Z,1.53
2019-05-22T15:26:35.180Z,1.70
2019-05-22T15:29:05.732Z,1.37
2019-05-22T15:31:33.967Z,1.43
2019-05-22T15:34:04.770Z,1.33
2019-05-22T15:36:33.954Z,1.50
2019-05-22T15:39:05.142Z,1.40
2019-05-22T15:41:33.692Z,1.50
2019-05-22T15:44:03.854Z,1.30
2019-05-22T15:46:32.152Z,1.33
2019-05-22T15:49:04.856Z,1.27
2019-05-22T15:51:35.334Z,1.40
2019-05-22T15:54:06.991Z,1.20
2019-05-22T15:56:39.495Z,1.10
2019-05-22T15:59:11.185Z,1.07
2019-05-22T16:01:41.402Z,1.30
2019-05-22T16:04:14.252Z,1.30
2019-05-22T16:06:43.637Z,1.40
2019-05-22T16:09:15.553Z,1.27
2019-05-22T16:11:46.252Z,1.00
2019-05-22T16:14:15.266Z,1.10
2019-05-22T16:16:47.669Z,0.90
2019-05-22T16:19:16.214Z,1.10
2019-05-22T16:21:46.696Z,1.10
2019-05-22T16:24:16.301Z,0.90
2019-05-22T16:26:44.611Z,1.10
2019-05-22T16:29:14.754Z,1.07
2019-05-22T16:31:45.101Z,1.10
2019-05-22T16:34:14.404Z,1.17
2019-05-22T16:36:44.468Z,1.03
2019-05-22T16:39:15.135Z,1.00
2019-05-22T16:41:43.848Z,1.03
2019-05-22T16:44:13.600Z,1.00
2019-05-22T16:46:43.116Z,1.00
2019-05-22T16:49:13.212Z,1.10
2019-05-22T16:51:44.339Z,0.90
2019-05-22T16:54:14.621Z,1.00
2019-05-22T16:56:43.049Z,1.10
2019-05-22T16:59:12.116Z,1.10
2019-05-22T17:01:57.542Z,1.00
2019-05-22T17:04:10.891Z,1.17
2019-05-22T17:06:42.264Z,1.07
2019-05-22T17:09:11.811Z,1.23
2019-05-22T17:11:41.329Z,1.00
2019-05-22T17:14:12.003Z,1.30
2019-05-22T17:16:42.597Z,1.30
2019-05-22T17:19:25.848Z,1.00
2019-05-22T17:21:43.722Z,1.10
2019-05-22T17:24:13.580Z,1.10
2019-05-22T17:26:42.372Z,0.77
2019-05-22T17:29:10.833Z,1.07
2019-05-22T17:31:39.842Z,0.80
2019-05-22T17:34:26.077Z,1.10
2019-05-22T17:36:56.939Z,0.90
2019-05-22T17:39:27.211Z,0.80
2019-05-22T17:41:56.928Z,1.10
2019-05-22T17:44:27.110Z,1.17
2019-05-22T17:46:58.323Z,1.13
2019-05-22T17:49:29.276Z,1.10
2019-05-22T17:51:59.359Z,1.03
2019-05-22T17:54:29.355Z,0.90
2019-05-22T17:56:58.381Z,1.07
2019-05-22T17:59:26.704Z,1.00
2019-05-22T18:01:55.495Z,0.90
2019-05-22T18:04:23.761Z,0.93
2019-05-22T18:06:52.869Z,0.80
2019-05-22T18:09:21.130Z,1.10
2019-05-22T18:11:49.515Z,0.90
2019-05-22T18:14:17.618Z,0.90
2019-05-22T18:16:45.782Z,0.90
2019-05-22T18:19:14.370Z,1.10
2019-05-22T18:21:42.698Z,1.10
2019-05-22T18:24:11.617Z,0.97
2019-05-22T18:26:39.844Z,0.90
2019-05-22T18:29:07.816Z,1.00
2019-05-22T18:31:37.466Z,0.90
2019-05-22T18:34:05.976Z,0.90
2019-05-22T18:36:34.386Z,1.10
2019-05-22T18:39:02.837Z,0.90
2019-05-22T18:41:32.644Z,1.00
2019-05-22T18:44:01.448Z,0.87
2019-05-22T18:46:31.202Z,1.00
2019-05-22T18:48:59.196Z,0.90
2019-05-22T18:51:28.060Z,0.90
2019-05-22T18:53:56.344Z,0.90
2019-05-22T18:56:24.672Z,1.00
2019-05-22T18:58:52.724Z,1.00
2019-05-22T19:01:21.414Z,0.90
2019-05-22T19:03:49.719Z,1.00
2019-05-22T19:06:29.728Z,0.97
2019-05-22T19:08:48.882Z,0.83
2019-05-22T19:11:16.999Z,1.00
2019-05-22T19:13:45.261Z,1.17
2019-05-22T19:16:14.246Z,0.90
2019-05-22T19:18:42.615Z,1.20
2019-05-22T19:21:11.588Z,1.00
2019-05-22T19:23:39.583Z,0.80
2019-05-22T19:26:07.842Z,1.00
2019-05-22T19:28:43.353Z,1.10
2019-05-22T19:31:06.646Z,0.90
2019-05-22T19:33:34.581Z,0.90
2019-05-22T19:36:03.670Z,1.03
2019-05-22T19:38:32.648Z,1.27
2019-05-22T19:41:00.882Z,1.10
2019-05-22T19:43:29.187Z,1.00
2019-05-22T19:45:57.760Z,1.00
2019-05-22T19:48:25.916Z,1.00
2019-05-22T19:50:54.326Z,0.90
2019-05-22T19:53:22.482Z,1.00
2019-05-22T19:55:50.953Z,1.00
2019-05-22T19:58:22.029Z,0.90
2019-05-22T20:00:50.806Z,1.00
2019-05-22T20:03:21.720Z,1.07
2019-05-22T20:05:50.018Z,0.80
2019-05-22T20:08:18.391Z,0.90
2019-05-22T20:10:47.552Z,0.90
2019-05-22T20:13:18.193Z,0.90
2019-05-22T20:15:47.028Z,0.90
2019-05-22T20:18:15.499Z,0.90
2019-05-22T20:20:43.582Z,0.90
2019-05-22T20:23:12.690Z,0.87
2019-05-22T20:25:40.868Z,1.10
2019-05-22T20:28:10.117Z,0.90
2019-05-22T20:30:38.086Z,1.10
2019-05-22T20:33:06.702Z,0.90
2019-05-22T20:35:35.295Z,0.90
2019-05-22T20:38:05.493Z,1.00
2019-05-22T20:40:33.875Z,1.10
2019-05-22T20:43:05.121Z,0.80
2019-05-22T20:45:33.366Z,1.00
2019-05-22T20:48:20.884Z,1.03
2019-05-22T20:50:48.944Z,0.90
2019-05-22T20:53:19.054Z,0.93
2019-05-22T20:55:50.088Z,1.13
2019-05-22T20:58:20.372Z,0.90
2019-05-22T21:00:50.897Z,0.90
2019-05-22T21:03:20.701Z,0.90
2019-05-22T21:05:50.866Z,1.10
2019-05-22T21:08:24.005Z,1.10
2019-05-22T21:10:53.778Z,1.00
2019-05-22T21:13:23.200Z,0.83
2019-05-22T21:15:52.705Z,0.80
2019-05-22T21:18:25.259Z,0.80
2019-05-22T21:20:56.390Z,0.77
2019-05-22T21:23:25.582Z,1.00
2019-05-22T21:25:53.781Z,0.90
2019-05-22T21:28:22.930Z,1.00
2019-05-22T21:30:53.346Z,1.00
2019-05-22T21:33:22.824Z,1.10
2019-05-22T21:35:50.947Z,0.90
2019-05-22T21:38:20.821Z,0.90
2019-05-22T21:40:49.015Z,1.10
2019-05-22T21:43:18.418Z,1.03
2019-05-22T21:45:46.698Z,1.07
2019-05-22T21:48:15.291Z,1.00
2019-05-22T21:50:44.461Z,1.00
2019-05-22T21:53:14.142Z,0.97
2019-05-22T21:55:45.605Z,0.90
2019-05-22T21:58:14.470Z,0.93
2019-05-22T22:01:24.654Z,1.10
2019-05-22T22:03:58.420Z,0.97
2019-05-22T22:06:27.301Z,1.00
2019-05-22T22:08:57.418Z,0.93
2019-05-22T22:11:28.329Z,0.90
2019-05-22T22:13:57.014Z,0.83
2019-05-22T22:16:25.085Z,0.97
2019-05-22T22:18:54.463Z,0.83
2019-05-22T22:21:22.705Z,1.00
2019-05-22T22:23:51.717Z,1.00
2019-05-22T22:26:26.024Z,1.00
2019-05-22T22:28:51.599Z,1.13
2019-05-22T22:31:23.066Z,1.00
2019-05-22T22:33:59.007Z,1.17
2019-05-22T22:36:27.859Z,1.10
2019-05-22T22:38:56.713Z,0.83
2019-05-22T22:41:25.877Z,0.80
2019-05-22T22:43:57.699Z,1.00
2019-05-22T22:46:38.542Z,1.00
2019-05-22T22:49:14.298Z,0.90
2019-05-22T22:51:45.132Z,0.90
2019-05-22T22:54:13.594Z,1.07
2019-05-22T22:56:43.067Z,1.00
2019-05-22T22:59:11.881Z,0.90
2019-05-22T23:01:41.758Z,0.90
2019-05-22T23:04:11.647Z,0.87
2019-05-22T23:06:42.233Z,1.00
2019-05-22T23:09:12.161Z,0.73
2019-05-22T23:11:41.258Z,0.90
2019-05-22T23:14:09.558Z,0.90
2019-05-22T23:16:39.192Z,0.90
2019-05-22T23:19:43.830Z,1.13
2019-05-22T23:22:15.492Z,1.00
2019-05-22T23:24:45.400Z,1.10
2019-05-22T23:27:14.590Z,1.00
2019-05-22T23:29:44.539Z,1.10
2019-05-22T23:32:15.097Z,0.90
2019-05-22T23:34:45.170Z,1.07
2019-05-22T23:37:14.643Z,0.90
2019-05-22T23:39:45.646Z,0.90
2019-05-22T23:42:21.806Z,1.00
2019-05-22T23:44:55.426Z,1.07
2019-05-22T23:47:24.137Z,1.10
2019-05-22T23:49:53.774Z,1.00
2019-05-22T23:52:22.485Z,1.10
2019-05-22T23:54:51.552Z,0.90
2019-05-22T23:57:22.053Z,1.10
2019-05-22T23:59:56.103Z,1.07
